createdAt,value
2024-05-09T00:00:40.572Z,98.45
2024-05-09T00:03:09.271Z,99.93
2024-05-09T00:05:37.521Z,99.17
2024-05-09T00:08:04.947Z,99.73
2024-05-09T00:10:36.594Z,99.00
2024-05-09T00:13:06.420Z,100.00
2024-05-09T00:15:34.153Z,100.00
2024-05-09T00:18:01.931Z,100.00
2024-05-09T00:20:37.306Z,100.00
2024-05-09T00:23:08.128Z,100.00
2024-05-09T00:25:35.574Z,100.00
2024-05-09T00:28:02.930Z,100.00
2024-05-09T00:30:34.530Z,100.00
2024-05-09T00:33:08.155Z,100.00
2024-05-09T00:35:36.596Z,100.00
2024-05-09T00:38:04.094Z,100.00
2024-05-09T00:40:43.156Z,100.00
2024-05-09T00:43:11.635Z,100.00
2024-05-09T00:45:39.095Z,100.00
2024-05-09T00:48:08.675Z,100.00
2024-05-09T00:50:40.202Z,100.00
2024-05-09T00:53:10.216Z,100.00
2024-05-09T00:55:39.057Z,100.00
2024-05-09T00:58:09.228Z,100.00
2024-05-09T01:00:39.779Z,100.00
2024-05-09T01:03:10.497Z,100.00
2024-05-09T01:05:39.703Z,100.00
2024-05-09T01:08:07.520Z,100.00
2024-05-09T01:10:35.882Z,100.00
2024-05-09T01:13:06.986Z,100.00
2024-05-09T01:15:35.152Z,100.00
2024-05-09T01:18:09.839Z,100.00
2024-05-09T01:20:41.936Z,100.00
2024-05-09T01:23:12.049Z,100.00
2024-05-09T01:25:39.470Z,100.00
2024-05-09T01:28:06.837Z,100.00
2024-05-09T01:30:36.203Z,100.00
2024-05-09T01:33:09.945Z,99.78
2024-05-09T01:35:40.906Z,99.93
2024-05-09T01:38:08.726Z,100.00
2024-05-09T01:40:38.821Z,100.00
2024-05-09T01:43:08.540Z,100.00
2024-05-09T01:45:36.328Z,100.00
2024-05-09T01:48:03.804Z,100.00
2024-05-09T01:53:00.734Z,100.00
2024-05-09T01:55:27.564Z,100.00
2024-05-09T01:57:54.319Z,100.00
2024-05-09T02:00:30.675Z,100.00
2024-05-09T02:03:05.390Z,100.00
2024-05-09T02:05:32.502Z,100.00
2024-05-09T02:07:59.345Z,100.00
2024-05-09T02:10:31.980Z,100.00
2024-05-09T02:12:59.838Z,100.00
2024-05-09T02:15:26.608Z,100.00
2024-05-09T02:17:53.584Z,100.00
2024-05-09T02:20:30.115Z,100.00
2024-05-09T02:23:04.152Z,100.00
2024-05-09T02:25:32.040Z,100.00
2024-05-09T02:27:59.038Z,100.00
2024-05-09T02:30:35.801Z,100.00
2024-05-09T02:33:07.527Z,100.00
2024-05-09T02:35:34.853Z,100.00
2024-05-09T02:38:01.922Z,100.00
2024-05-09T02:40:36.191Z,100.00
2024-05-09T02:43:06.434Z,100.00
2024-05-09T02:45:33.508Z,100.00
2024-05-09T02:48:01.385Z,100.00
2024-05-09T02:50:34.338Z,100.00
2024-05-09T02:53:05.680Z,100.00
2024-05-09T02:55:32.786Z,100.00
2024-05-09T02:57:59.754Z,100.00
2024-05-09T03:00:34.832Z,100.00
2024-05-09T03:03:12.534Z,100.00
2024-05-09T03:05:41.905Z,100.00
2024-05-09T03:08:09.066Z,100.00
2024-05-09T03:10:38.243Z,100.00
2024-05-09T03:13:11.913Z,100.00
2024-05-09T03:15:39.604Z,100.00
2024-05-09T03:18:07.163Z,100.00
2024-05-09T03:20:35.946Z,100.00
2024-05-09T03:23:05.344Z,100.00
2024-05-09T03:25:32.869Z,100.00
2024-05-09T03:27:59.804Z,100.00
2024-05-09T03:30:38.634Z,100.00
2024-05-09T03:33:17.992Z,100.00
2024-05-09T03:35:46.806Z,100.00
2024-05-09T03:38:13.972Z,100.00
2024-05-09T03:40:49.328Z,100.00
2024-05-09T03:43:17.517Z,100.00
2024-05-09T03:45:45.125Z,100.00
2024-05-09T03:48:12.223Z,100.00
2024-05-09T03:50:39.481Z,100.00
2024-05-09T03:53:07.336Z,100.00
2024-05-09T03:55:34.167Z,100.00
2024-05-09T03:58:00.964Z,100.00
2024-05-09T04:00:35.629Z,100.00
2024-05-09T04:03:08.761Z,100.00
2024-05-09T04:05:40.003Z,100.00
2024-05-09T04:08:07.721Z,100.00
2024-05-09T04:10:35.315Z,100.00
2024-05-09T04:13:03.586Z,100.00
2024-05-09T04:15:30.857Z,100.00
2024-05-09T04:17:57.977Z,100.00
2024-05-09T04:20:35.569Z,100.00
2024-05-09T04:23:07.300Z,100.00
2024-05-09T04:25:34.920Z,100.00
2024-05-09T04:28:01.810Z,100.00
2024-05-09T04:30:37.509Z,100.00
2024-05-09T04:33:09.282Z,100.00
2024-05-09T04:35:38.494Z,100.00
2024-05-09T04:38:06.093Z,100.00
2024-05-09T04:40:35.987Z,100.00
2024-05-09T04:43:13.655Z,100.00
2024-05-09T04:45:40.747Z,100.00
2024-05-09T04:48:08.307Z,100.00
2024-05-09T04:50:38.336Z,100.00
2024-05-09T04:53:08.753Z,100.00
2024-05-09T04:55:37.280Z,100.00
2024-05-09T04:58:05.061Z,100.00
2024-05-09T05:00:36.486Z,100.00
2024-05-09T05:03:07.466Z,100.00
2024-05-09T05:05:40.326Z,100.00
2024-05-09T05:08:18.724Z,100.00
2024-05-09T05:10:47.460Z,100.00
2024-05-09T05:13:22.662Z,100.00
2024-05-09T05:15:57.178Z,100.00
2024-05-09T05:18:25.987Z,100.00
2024-05-09T05:20:53.169Z,100.00
2024-05-09T05:23:21.346Z,100.00
2024-05-09T05:25:49.663Z,100.00
2024-05-09T05:28:17.416Z,100.00
2024-05-09T05:30:44.610Z,100.00
2024-05-09T05:33:13.620Z,100.00
2024-05-09T05:35:41.545Z,100.00
2024-05-09T05:38:08.906Z,100.00
2024-05-09T05:40:40.220Z,100.00
2024-05-09T05:43:09.594Z,100.00
2024-05-09T05:45:36.908Z,100.00
2024-05-09T05:48:06.110Z,100.00
2024-05-09T05:50:36.642Z,100.00
2024-05-09T05:53:10.112Z,100.00
2024-05-09T05:55:41.067Z,100.00
2024-05-09T05:58:15.008Z,100.00
2024-05-09T06:00:42.602Z,100.00
2024-05-09T06:03:10.743Z,100.00
2024-05-09T06:05:43.990Z,100.00
2024-05-09T06:08:11.971Z,100.00
2024-05-09T06:10:40.764Z,100.00
2024-05-09T06:13:12.289Z,100.00
2024-05-09T06:15:42.715Z,100.00
2024-05-09T06:18:11.740Z,100.00
2024-05-09T06:20:40.434Z,100.00
2024-05-09T06:23:09.013Z,100.00
2024-05-09T06:25:36.636Z,100.00
2024-05-09T06:28:03.887Z,100.00
2024-05-09T06:30:38.566Z,100.00
2024-05-09T06:33:11.028Z,100.00
2024-05-09T06:35:39.947Z,100.00
2024-05-09T06:38:09.571Z,100.00
2024-05-09T06:40:39.992Z,100.00
2024-05-09T06:43:16.324Z,100.00
2024-05-09T06:48:13.205Z,100.00
2024-05-09T06:50:41.254Z,100.00
2024-05-09T06:53:09.193Z,100.00
2024-05-09T06:55:37.132Z,100.00
2024-05-09T06:58:06.321Z,100.00
2024-05-09T07:00:38.930Z,100.00
2024-05-09T07:03:13.855Z,100.00
2024-05-09T07:05:43.179Z,100.00
2024-05-09T07:08:10.575Z,100.00
2024-05-09T07:10:37.628Z,100.00
2024-05-09T07:13:11.441Z,100.00
2024-05-09T07:15:38.809Z,100.00
2024-05-09T07:18:13.208Z,100.00
2024-05-09T07:20:40.771Z,98.84
2024-05-09T07:23:13.036Z,95.95
2024-05-09T07:25:40.764Z,95.75
2024-05-09T07:28:13.606Z,96.57
2024-05-09T07:30:40.450Z,95.34
2024-05-09T07:33:07.505Z,93.53
2024-05-09T07:35:34.715Z,91.77
2024-05-09T07:38:01.683Z,92.63
2024-05-09T07:40:35.085Z,90.97
2024-05-09T07:43:08.515Z,87.65
2024-05-09T07:53:36.485Z,82.15
2024-05-09T07:55:53.998Z,80.32
2024-05-09T07:58:22.550Z,78.98
2024-05-09T08:00:49.479Z,77.15
2024-05-09T08:03:16.483Z,78.30
2024-05-09T08:05:43.387Z,77.33
2024-05-09T08:08:11.452Z,76.21
2024-05-09T08:10:38.426Z,71.87
2024-05-09T08:13:05.424Z,70.00
2024-05-09T08:15:32.402Z,69.86
2024-05-09T08:18:00.180Z,68.14
2024-05-09T08:20:31.282Z,67.81
2024-05-09T08:23:01.846Z,67.59
2024-05-09T08:25:28.809Z,66.93
2024-05-09T08:27:55.705Z,66.58
2024-05-09T08:30:30.037Z,64.97
2024-05-09T08:33:04.273Z,61.94
2024-05-09T08:35:31.530Z,60.93
2024-05-09T08:37:58.404Z,60.74
2024-05-09T08:40:32.929Z,60.43
2024-05-09T08:43:05.108Z,61.21
2024-05-09T08:45:33.401Z,61.16
2024-05-09T08:48:06.027Z,60.03
2024-05-09T08:50:38.804Z,60.70
2024-05-09T08:53:08.224Z,62.45
2024-05-09T08:55:39.435Z,60.33
2024-05-09T08:58:10.512Z,60.47
2024-05-09T09:00:39.281Z,61.51
2024-05-09T09:03:09.792Z,58.18
2024-05-09T09:05:39.708Z,54.74
2024-05-09T09:08:08.897Z,55.33
2024-05-09T09:10:39.737Z,55.40
2024-05-09T09:13:09.736Z,54.90
2024-05-09T09:16:01.191Z,54.40
2024-05-09T09:18:29.358Z,56.54
2024-05-09T09:20:56.590Z,56.64
2024-05-09T09:23:23.458Z,56.08
2024-05-09T09:25:50.821Z,56.55
2024-05-09T09:28:18.056Z,57.13
2024-05-09T09:30:45.799Z,57.46
2024-05-09T09:33:12.906Z,54.30
2024-05-09T09:35:40.802Z,52.31
2024-05-09T09:38:10.527Z,54.00
2024-05-09T09:40:45.783Z,51.75
2024-05-09T09:43:20.907Z,51.68
2024-05-09T09:45:53.889Z,53.07
2024-05-09T09:48:22.345Z,51.41
2024-05-09T09:50:51.905Z,52.44
2024-05-09T09:53:19.604Z,52.87
2024-05-09T09:55:47.176Z,52.64
2024-05-09T09:58:18.640Z,50.85
2024-05-09T10:00:46.026Z,49.67
2024-05-09T10:03:13.167Z,51.29
2024-05-09T10:05:43.247Z,51.21
2024-05-09T10:08:13.090Z,50.82
2024-05-09T10:10:40.313Z,49.90
2024-05-09T10:13:08.335Z,50.86
2024-05-09T10:15:51.189Z,50.61
2024-05-09T10:18:28.021Z,53.12
2024-05-09T10:20:57.677Z,49.40
2024-05-09T10:23:34.600Z,49.05
2024-05-09T10:26:03.638Z,51.83
2024-05-09T10:28:36.816Z,47.99
2024-05-09T10:31:15.700Z,50.22
2024-05-09T10:33:46.366Z,48.23
2024-05-09T10:36:14.734Z,48.13
2024-05-09T10:38:43.231Z,48.16
2024-05-09T10:41:11.327Z,47.14
2024-05-09T10:43:41.630Z,47.25
2024-05-09T10:46:09.956Z,46.10
2024-05-09T10:48:37.942Z,47.36
2024-05-09T10:51:05.303Z,46.06
2024-05-09T10:53:32.180Z,46.42
2024-05-09T10:56:00.321Z,45.51
2024-05-09T10:58:27.975Z,45.83
2024-05-09T11:00:58.721Z,46.82
2024-05-09T11:03:26.274Z,46.17
2024-05-09T11:05:53.777Z,45.98
2024-05-09T11:08:24.017Z,47.48
2024-05-09T11:10:52.767Z,46.17
2024-05-09T11:13:33.313Z,42.63
2024-05-09T11:16:00.771Z,44.13
2024-05-09T11:18:32.200Z,43.85
2024-05-09T11:21:02.118Z,44.36
2024-05-09T11:23:32.492Z,43.50
2024-05-09T11:25:59.422Z,42.66
2024-05-09T11:28:28.820Z,44.10
2024-05-09T11:31:10.390Z,41.85
2024-05-09T11:33:39.164Z,39.26
2024-05-09T11:36:07.392Z,39.60
2024-05-09T11:38:34.369Z,41.45
2024-05-09T11:41:02.643Z,39.71
2024-05-09T11:43:29.609Z,41.03
2024-05-09T11:45:57.914Z,40.12
2024-05-09T11:48:28.247Z,37.43
2024-05-09T11:50:56.391Z,37.70
2024-05-09T11:53:23.177Z,40.20
2024-05-09T11:55:50.156Z,40.64
2024-05-09T11:58:18.569Z,34.46
2024-05-09T12:00:46.556Z,35.58
2024-05-09T12:03:13.779Z,35.51
2024-05-09T12:05:41.119Z,38.21
2024-05-09T12:08:08.232Z,36.67
2024-05-09T12:10:36.553Z,38.61
2024-05-09T12:13:06.176Z,38.15
2024-05-09T12:15:38.004Z,37.89
2024-05-09T12:18:06.777Z,37.70
2024-05-09T12:20:38.139Z,36.42
2024-05-09T12:23:08.414Z,36.46
2024-05-09T12:25:37.257Z,37.38
2024-05-09T12:28:04.480Z,35.33
2024-05-09T12:30:36.816Z,37.21
2024-05-09T12:33:08.610Z,35.50
2024-05-09T12:35:35.776Z,33.98
2024-05-09T12:38:02.914Z,35.72
2024-05-09T12:42:59.459Z,34.37
2024-05-09T12:45:26.267Z,35.16
2024-05-09T12:47:53.248Z,34.61
2024-05-09T12:50:29.121Z,37.30
2024-05-09T12:52:58.821Z,36.18
2024-05-09T12:55:25.526Z,36.93
2024-05-09T12:57:52.326Z,34.34
2024-05-09T13:00:28.197Z,38.98
2024-05-09T13:03:00.708Z,37.02
2024-05-09T13:05:28.069Z,33.09
2024-05-09T13:07:56.838Z,33.88
2024-05-09T13:10:31.440Z,36.02
2024-05-09T13:13:00.926Z,36.71
2024-05-09T13:15:28.467Z,35.69
2024-05-09T13:18:00.337Z,34.90
2024-05-09T13:20:33.233Z,35.07
2024-05-09T13:23:04.051Z,35.79
2024-05-09T13:25:30.965Z,37.24
2024-05-09T13:27:58.023Z,37.21
2024-05-09T13:30:33.675Z,36.40
2024-05-09T13:33:06.862Z,35.63
2024-05-09T13:35:35.530Z,37.95
2024-05-09T13:38:04.001Z,38.88
2024-05-09T13:40:34.529Z,35.27
2024-05-09T13:43:04.512Z,36.82
2024-05-09T13:45:31.887Z,35.09
2024-05-09T13:47:59.221Z,34.53
2024-05-09T13:50:33.787Z,32.16
2024-05-09T13:53:03.825Z,31.58
2024-05-09T13:55:30.630Z,34.15
2024-05-09T13:57:57.554Z,34.73
2024-05-09T14:02:54.457Z,34.44
2024-05-09T14:05:21.586Z,36.25
2024-05-09T14:07:48.489Z,35.74
2024-05-09T14:10:22.940Z,35.82
2024-05-09T14:12:55.614Z,34.19
2024-05-09T14:15:22.576Z,34.20
2024-05-09T14:17:49.530Z,32.46
2024-05-09T14:20:23.710Z,33.32
2024-05-09T14:22:57.287Z,33.38
2024-05-09T14:25:26.644Z,31.73
2024-05-09T14:27:53.902Z,33.94
2024-05-09T14:30:30.187Z,33.57
2024-05-09T14:33:02.820Z,34.60
2024-05-09T14:35:29.756Z,33.84
2024-05-09T14:37:56.574Z,33.26
2024-05-09T14:40:34.885Z,33.60
2024-05-09T14:43:08.128Z,34.92
2024-05-09T14:45:35.557Z,34.56
2024-05-09T14:48:03.596Z,33.90
2024-05-09T14:50:36.107Z,35.49
2024-05-09T14:53:07.035Z,36.13
2024-05-09T14:55:43.102Z,35.08
2024-05-09T14:58:11.675Z,35.57
2024-05-09T15:00:46.857Z,35.23
2024-05-09T15:03:18.393Z,35.40
2024-05-09T15:05:45.561Z,35.08
2024-05-09T15:08:12.694Z,35.19
2024-05-09T15:10:39.757Z,35.52
2024-05-09T15:13:08.738Z,36.33
2024-05-09T15:15:37.375Z,37.38
2024-05-09T15:18:05.847Z,37.85
2024-05-09T15:20:36.183Z,38.36
2024-05-09T15:23:05.717Z,38.39
2024-05-09T15:25:33.769Z,38.89
2024-05-09T15:28:00.905Z,38.57
2024-05-09T15:30:31.137Z,38.51
2024-05-09T15:33:01.235Z,37.55
2024-05-09T15:35:28.395Z,36.63
2024-05-09T15:37:55.848Z,37.30
2024-05-09T15:40:31.486Z,37.27
2024-05-09T15:43:06.140Z,38.23
2024-05-09T15:45:34.785Z,39.36
2024-05-09T15:48:03.001Z,39.03
2024-05-09T15:50:37.114Z,40.43
2024-05-09T15:53:08.128Z,39.00
2024-05-09T15:55:35.861Z,38.39
2024-05-09T15:58:04.192Z,38.18
2024-05-09T16:03:01.569Z,38.33
2024-05-09T16:05:28.602Z,39.30
2024-05-09T16:07:55.551Z,40.54
2024-05-09T16:10:26.051Z,39.98
2024-05-09T16:12:59.237Z,39.86
2024-05-09T16:15:26.143Z,39.24
2024-05-09T16:17:53.201Z,39.38
2024-05-09T16:20:33.210Z,39.21
2024-05-09T16:23:05.307Z,40.14
2024-05-09T16:25:32.152Z,40.24
2024-05-09T16:27:59.260Z,39.19
2024-05-09T16:30:32.163Z,39.53
2024-05-09T16:33:03.515Z,40.06
2024-05-09T16:35:31.230Z,39.96
2024-05-09T16:37:58.133Z,39.17
2024-05-09T16:40:34.099Z,39.47
2024-05-09T16:43:06.282Z,39.22
2024-05-09T16:45:33.562Z,40.50
2024-05-09T16:48:01.358Z,40.57
2024-05-09T16:50:32.747Z,40.31
2024-05-09T16:53:02.439Z,40.03
2024-05-09T16:55:29.329Z,40.18
2024-05-09T16:57:57.459Z,41.17
2024-05-09T17:00:35.463Z,40.92
2024-05-09T17:03:09.602Z,41.20
2024-05-09T17:05:37.127Z,41.18
2024-05-09T17:08:04.471Z,41.02
2024-05-09T17:10:34.060Z,41.43
2024-05-09T17:13:06.759Z,42.44
2024-05-09T17:15:35.387Z,42.46
2024-05-09T17:18:03.256Z,42.51
2024-05-09T17:20:34.469Z,42.70
2024-05-09T17:23:04.573Z,42.46
2024-05-09T17:25:31.995Z,43.28
2024-05-09T17:28:05.422Z,43.71
2024-05-09T17:30:36.565Z,44.13
2024-05-09T17:33:06.509Z,44.30
2024-05-09T17:35:33.561Z,44.38
2024-05-09T17:38:01.793Z,44.06
2024-05-09T17:40:33.628Z,44.10
2024-05-09T17:43:03.838Z,44.92
2024-05-09T17:45:31.366Z,45.46
2024-05-09T17:47:58.638Z,45.69
2024-05-09T17:50:31.631Z,46.77
2024-05-09T17:53:02.902Z,46.97
2024-05-09T17:55:30.115Z,47.14
2024-05-09T17:57:57.439Z,47.18
2024-05-09T18:00:33.727Z,47.48
2024-05-09T18:03:06.365Z,47.34
2024-05-09T18:05:38.036Z,47.54
2024-05-09T18:08:06.544Z,48.19
2024-05-09T18:10:37.634Z,48.00
2024-05-09T18:13:07.561Z,47.69
2024-05-09T18:15:34.940Z,48.26
2024-05-09T18:18:03.182Z,48.31
2024-05-09T18:20:39.858Z,47.74
2024-05-09T18:23:11.509Z,48.47
2024-05-09T18:25:38.235Z,48.81
2024-05-09T18:28:06.096Z,49.30
2024-05-09T18:30:36.314Z,49.54
2024-05-09T18:33:06.482Z,50.87
2024-05-09T18:35:34.847Z,50.21
2024-05-09T18:38:01.739Z,50.94
2024-05-09T18:40:34.239Z,51.27
2024-05-09T18:43:05.842Z,51.57
2024-05-09T18:45:34.222Z,52.24
2024-05-09T18:48:01.292Z,53.02
2024-05-09T18:50:34.777Z,52.72
2024-05-09T18:53:11.888Z,54.34
2024-05-09T18:55:40.163Z,55.25
2024-05-09T18:58:07.143Z,55.63
2024-05-09T19:00:37.576Z,56.08
2024-05-09T19:03:10.278Z,56.29
2024-05-09T19:05:40.283Z,55.30
2024-05-09T19:08:08.085Z,55.85
2024-05-09T19:10:36.511Z,56.13
2024-05-09T19:13:08.653Z,55.51
2024-05-09T19:15:39.684Z,57.60
2024-05-09T19:18:07.660Z,58.06
2024-05-09T19:20:36.315Z,59.08
2024-05-09T19:23:04.328Z,59.76
2024-05-09T19:25:31.320Z,60.28
2024-05-09T19:27:58.334Z,60.74
2024-05-09T19:30:34.478Z,61.46
2024-05-09T19:33:07.010Z,61.51
2024-05-09T19:35:34.052Z,61.75
2024-05-09T19:38:01.020Z,62.24
2024-05-09T19:40:32.060Z,62.04
2024-05-09T19:43:02.364Z,62.53
2024-05-09T19:45:30.083Z,63.13
2024-05-09T19:47:57.412Z,64.21
2024-05-09T19:50:32.457Z,64.04
2024-05-09T19:53:07.246Z,64.63
2024-05-09T19:55:34.455Z,65.52
2024-05-09T19:58:04.913Z,65.12
2024-05-09T20:00:39.675Z,65.42
2024-05-09T20:03:09.499Z,65.54
2024-05-09T20:05:37.619Z,65.51
2024-05-09T20:08:05.518Z,65.98
2024-05-09T20:10:34.663Z,66.63
2024-05-09T20:13:03.682Z,67.08
2024-05-09T20:15:35.343Z,67.57
2024-05-09T20:18:02.593Z,67.97
2024-05-09T20:20:37.093Z,68.21
2024-05-09T20:23:07.997Z,68.33
2024-05-09T20:25:34.815Z,68.62
2024-05-09T20:28:01.667Z,69.15
2024-05-09T20:30:32.459Z,68.40
2024-05-09T20:33:03.560Z,69.32
2024-05-09T20:35:34.925Z,68.26
2024-05-09T20:38:03.329Z,69.90
2024-05-09T20:40:35.247Z,70.23
2024-05-09T20:43:06.006Z,70.22
2024-05-09T20:45:33.596Z,70.26
2024-05-09T20:48:00.768Z,70.79
2024-05-09T20:50:36.490Z,71.16
2024-05-09T20:53:12.497Z,71.83
2024-05-09T20:55:40.603Z,71.45
2024-05-09T20:58:08.482Z,71.36
2024-05-09T21:00:40.173Z,71.74
2024-05-09T21:03:11.400Z,72.52
2024-05-09T21:05:39.030Z,72.18
2024-05-09T21:08:06.674Z,72.47
2024-05-09T21:10:35.039Z,72.26
2024-05-09T21:13:03.419Z,73.63
2024-05-09T21:15:31.101Z,74.25
2024-05-09T21:17:58.377Z,74.78
2024-05-09T21:20:31.011Z,74.54
2024-05-09T21:23:00.118Z,74.99
2024-05-09T21:25:26.950Z,76.02
2024-05-09T21:27:54.082Z,74.74
2024-05-09T21:30:31.892Z,75.32
2024-05-09T21:33:08.800Z,76.23
2024-05-09T21:35:36.297Z,76.37
2024-05-09T21:38:04.628Z,76.60
2024-05-09T21:40:34.839Z,77.16
2024-05-09T21:43:04.376Z,77.21
2024-05-09T21:45:31.819Z,77.88
2024-05-09T21:47:58.876Z,78.00
2024-05-09T21:50:32.550Z,76.45
2024-05-09T21:53:06.802Z,76.63
2024-05-09T21:55:34.072Z,77.56
2024-05-09T21:58:00.953Z,78.99
2024-05-09T22:00:35.612Z,77.58
2024-05-09T22:03:06.615Z,76.70
2024-05-09T22:05:34.038Z,77.61
2024-05-09T22:08:01.266Z,78.20
2024-05-09T22:10:33.828Z,78.35
2024-05-09T22:13:03.464Z,79.09
2024-05-09T22:15:30.530Z,79.13
2024-05-09T22:17:57.766Z,79.44
2024-05-09T22:20:34.078Z,80.90
2024-05-09T22:23:04.742Z,80.17
2024-05-09T22:25:32.390Z,80.28
2024-05-09T22:28:01.262Z,81.02
2024-05-09T22:30:35.652Z,80.70
2024-05-09T22:33:10.687Z,81.93
2024-05-09T22:35:39.309Z,83.67
2024-05-09T22:38:06.431Z,83.29
2024-05-09T22:40:42.887Z,82.78
2024-05-09T22:43:18.439Z,83.81
2024-05-09T22:45:46.404Z,82.50
2024-05-09T22:48:13.537Z,81.66
2024-05-09T22:50:41.103Z,82.94
2024-05-09T22:53:08.036Z,83.66
2024-05-09T22:55:34.761Z,84.48
2024-05-09T22:58:01.674Z,84.68
2024-05-09T23:00:31.408Z,84.98
2024-05-09T23:03:03.029Z,84.35
2024-05-09T23:05:30.996Z,85.26
2024-05-09T23:07:58.127Z,84.98
2024-05-09T23:10:32.150Z,84.72
2024-05-09T23:13:03.360Z,84.49
2024-05-09T23:15:30.389Z,85.81
2024-05-09T23:17:57.852Z,85.76
2024-05-09T23:20:33.689Z,85.72
2024-05-09T23:23:05.850Z,86.29
2024-05-09T23:25:32.724Z,86.27
2024-05-09T23:27:59.709Z,86.21
2024-05-09T23:30:36.953Z,86.84
2024-05-09T23:33:08.001Z,87.20
2024-05-09T23:35:35.230Z,87.41
2024-05-09T23:38:02.087Z,87.39
2024-05-09T23:40:37.199Z,87.68
2024-05-09T23:43:07.738Z,86.81
2024-05-09T23:45:35.077Z,88.78
2024-05-09T23:48:02.819Z,87.65
2024-05-09T23:50:35.552Z,87.97
2024-05-09T23:53:05.864Z,86.94
2024-05-09T23:55:33.059Z,87.16
2024-05-09T23:58:00.042Z,87.64
